Sct Santiago — V7NF7 — position and weather

sailwx.info

Track history (hours):
 
Tides and Currents Weather Stations Pressure Air Temp Water Temp Dewpoint Dewpoint Depression Visibility Wind Speed Wind Dir Waves Ship Positions

Sct Santiago

Last reported at 2015-Jul-06 13:33 UTC. Time now 2015-Jul-06 13:37 UTC.
Position N 49°55' W 003°01'.

Length 294 m; draft 11.3 m.

Type: Cargo ship. MMSI: 538002953.

Date/timePositionNaut miles runAvg speedWind from/ knotsBaromVisibWave heightAir tempDewpointWater temp
2015-Jul-06 13:33N 49°55' W 003°01'2120.7
2015-Jul-06 12:33N 50°02' W 002°31'2019.2
2015-Jul-06 11:30N 50°07' W 001°60'5819.0
2015-Jul-06 08:26N 50°23' W 000°32'2620.2
2015-Jul-06 07:09N 50°30' E 000°07'1320.5
2015-Jul-06 06:32N 50°33' E 000°26'2020.5
2015-Jul-06 05:33N 50°43' E 000°54'2020.4
2015-Jul-06 04:33N 50°56' E 001°19'1918.7
2015-Jul-06 03:34N 51°09' E 001°39'1818.4
2015-Jul-06 02:34N 51°23' E 001°58'1817.5
2015-Jul-06 01:33N 51°22' E 002°26'1514.7
2015-Jul-06 00:34N 51°22' E 002°50'1717.4
2015-Jul-05 23:34N 51°25' E 003°17'1212.0
2015-Jul-05 22:33N 51°26' E 003°36'1212.3
2015-Jul-05 21:33N 51°22' E 003°55'10 9.7
2015-Jul-05 20:33N 51°24' E 004°10'5 5.1
2015-Jul-05 19:33N 51°21' E 004°17'2 1.6
2015-Jul-05 18:33N 51°19' E 004°19'1 0.7
2015-Jul-05 17:31N 51°20' E 004°20'0 0.0
2015-Jul-05 16:31N 51°20' E 004°20'0 0.0
2015-Jul-05 15:31N 51°20' E 004°20'0 0.0
2015-Jul-05 14:31N 51°20' E 004°20'0 0.0
2015-Jul-05 13:28N 51°20' E 004°20'0 0.0
2015-Jul-05 12:31N 51°20' E 004°20'0 0.0
2015-Jul-05 11:31N 51°20' E 004°20'0 0.0
2015-Jul-05 10:31N 51°20' E 004°20'0 0.0
2015-Jul-05 09:28N 51°20' E 004°20'0 0.0
2015-Jul-05 08:31N 51°20' E 004°20'0 0.0
2015-Jul-05 07:31N 51°20' E 004°20'0 0.0
2015-Jul-05 06:31N 51°20' E 004°20'0 0.0
2015-Jul-05 05:31N 51°20' E 004°20'0 0.0
2015-Jul-05 04:31N 51°20' E 004°20'0 0.0
2015-Jul-05 03:31N 51°20' E 004°20'0 0.0
2015-Jul-05 02:31N 51°20' E 004°20'0 0.0
2015-Jul-05 01:28N 51°20' E 004°20'0 0.0
2015-Jul-05 00:34N 51°20' E 004°20'0 0.0
2015-Jul-04 23:33N 51°20' E 004°20'0 0.0
2015-Jul-04 22:33N 51°20' E 004°20'0 0.0
2015-Jul-04 21:33N 51°20' E 004°20'0 0.0
2015-Jul-04 20:33N 51°20' E 004°20'0 0.0
2015-Jul-04 19:33N 51°20' E 004°20'0 0.0
2015-Jul-04 18:33N 51°20' E 004°20'0 0.0
2015-Jul-04 17:33N 51°20' E 004°20'0 0.0
2015-Jul-04 16:33N 51°20' E 004°20'0 0.0
2015-Jul-04 15:24N 51°20' E 004°20'0 0.0
2015-Jul-04 14:33N 51°20' E 004°20'0 0.0
2015-Jul-04 13:33N 51°20' E 004°20'2 2.1
2015-Jul-04 12:34N 51°21' E 004°17'0 0.0
2015-Jul-04 11:34N 51°21' E 004°17'1 1.2
2015-Jul-04 10:33N 51°21' E 004°15'4 4.0
2015-Jul-04 09:33N 51°23' E 004°10'8 7.9
2015-Jul-04 08:33N 51°24' E 003°58'9 9.5
2015-Jul-04 07:33N 51°24' E 003°42'8 8.5
2015-Jul-04 06:33N 51°25' E 003°29'1515.2
2015-Jul-04 05:33N 51°24' E 003°05'1414.0
2015-Jul-04 04:33N 51°22' E 002°43'10 9.9
2015-Jul-04 03:33N 51°22' E 002°27'1818.1
2015-Jul-04 02:34N 51°25' E 001°58'2019.9
2015-Jul-04 01:34N 51°43' E 001°45'1313.0
2015-Jul-04 00:34N 51°54' E 001°34'1010.1
2015-Jul-03 23:33N 51°57' E 001°18'0 0.4
2015-Jul-03 22:31N 51°58' E 001°18'0 0.0
2015-Jul-03 21:31N 51°58' E 001°18'0 0.0
2015-Jul-03 20:31N 51°58' E 001°18'0 0.0
2015-Jul-03 19:31N 51°58' E 001°18'0 0.0
2015-Jul-03 18:31N 51°58' E 001°18'0 0.0
2015-Jul-03 17:31N 51°58' E 001°18'0 0.0
2015-Jul-03 16:31N 51°58' E 001°18'0 0.0
2015-Jul-03 15:31N 51°58' E 001°18'0 0.0
2015-Jul-03 14:31N 51°58' E 001°18'0 0.0
2015-Jul-03 13:31N 51°58' E 001°18'0 0.0
2015-Jul-03 12:31N 51°58' E 001°18'0 0.0
2015-Jul-03 11:34N 51°58' E 001°18'0 0.0
2015-Jul-03 10:33N 51°58' E 001°18'0 0.0
2015-Jul-03 09:33N 51°58' E 001°18'0 0.0
2015-Jul-03 08:33N 51°58' E 001°18'0 0.0
2015-Jul-03 07:33N 51°58' E 001°18'0 0.0
2015-Jul-03 06:33N 51°58' E 001°18'0 0.0
2015-Jul-03 05:33N 51°58' E 001°18'0 0.0
2015-Jul-03 04:33N 51°58' E 001°18'0 0.0
2015-Jul-03 03:33N 51°58' E 001°18'0 0.0
2015-Jul-03 02:33N 51°58' E 001°18'0 0.0
2015-Jul-03 01:33N 51°58' E 001°18'0 0.0
2015-Jul-03 00:33N 51°58' E 001°18'0 0.0
2015-Jul-02 23:33N 51°58' E 001°18'0 0.0
2015-Jul-02 22:33N 51°58' E 001°18'0 0.0
2015-Jul-02 21:33N 51°58' E 001°18'0 0.0
2015-Jul-02 20:33N 51°58' E 001°18'0 0.0
2015-Jul-02 19:33N 51°58' E 001°18'0 0.0
2015-Jul-02 18:33N 51°58' E 001°18'0 0.0
2015-Jul-02 17:33N 51°58' E 001°18'0 0.0
2015-Jul-02 16:33N 51°58' E 001°18'0 0.3
2015-Jul-02 15:33N 51°57' E 001°18'5 5.4
2015-Jul-02 14:33N 51°56' E 001°26'10 9.9
2015-Jul-02 13:33N 51°52' E 001°41'5 5.4
2015-Jul-02 12:33N 51°50' E 001°49'1717.4
2015-Jul-02 11:33N 51°32' E 001°52'1817.6
2015-Jul-02 10:33N 51°15' E 001°53'2221.7
2015-Jul-02 09:33N 50°59' E 001°30'2020.3
2015-Jul-02 08:33N 50°40' E 001°17'2120.7
2015-Jul-02 07:32N 50°28' E 000°50'4321.6
2015-Jul-02 05:33N 50°14' W 000°14'2121.1
2015-Jul-02 04:33N 50°09' W 000°46'2019.9
2015-Jul-02 03:33N 50°04' W 001°15'1918.4
2015-Jul-02 02:33N 49°60' W 001°44'1817.6
2015-Jul-02 01:32N 49°55' W 002°10'66318.7
2015-Jun-30 14:09N 40°16' W 009°49'1420.5
2015-Jun-30 13:29N 40°02' W 009°49'1920.3
2015-Jun-30 12:33N 39°44' W 009°50'2020.3
2015-Jun-30 11:33N 39°23' W 009°52'2020.2
2015-Jun-30 10:33N 39°03' W 009°52'2020.1
2015-Jun-30 09:33N 38°43' W 009°52'2020.1
2015-Jun-30 08:33N 38°24' W 009°46'2020.3
2015-Jun-30 07:33N 38°04' W 009°40'2020.2
2015-Jun-30 06:33N 37°44' W 009°34'2020.0
2015-Jun-30 05:33N 37°24' W 009°28'2020.2
2015-Jun-30 04:33N 37°05' W 009°23'2019.8
2015-Jun-30 03:33N 36°47' W 009°12'2020.1
2015-Jun-30 02:33N 36°40' W 008°49'2020.0
2015-Jun-30 01:33N 36°33' W 008°25'2020.0
2015-Jun-30 00:33N 36°27' W 008°02'2020.0
2015-Jun-29 23:33N 36°21' W 007°38'2020.6
2015-Jun-29 22:33N 36°14' W 007°14'2120.3
2015-Jun-29 21:33N 36°08' W 006°50'7619.1
2015-Jun-29 17:33N 36°03' W 005°16'16019.8
2015-Jun-29 09:31N 36°27' W 002°01'2020.3
2015-Jun-29 08:33N 36°31' W 001°36'2020.3
2015-Jun-29 07:33N 36°34' W 001°12'2020.2
2015-Jun-29 06:33N 36°37' W 000°47'2020.0
2015-Jun-29 05:34N 36°41' W 000°22'2020.2
2015-Jun-29 04:33N 36°44' E 000°03'2020.2
2015-Jun-29 03:34N 36°47' E 000°27'2019.8
2015-Jun-29 02:34N 36°51' E 000°52'2020.1
2015-Jun-29 01:33N 36°53' E 001°17'2020.4
2015-Jun-29 00:34N 36°57' E 001°42'2020.3
2015-Jun-28 23:33N 36°60' E 002°07'2020.3
2015-Jun-28 22:34N 37°03' E 002°32'2020.4
2015-Jun-28 21:34N 37°07' E 002°57'2120.3
2015-Jun-28 20:32N 37°10' E 003°23'1920.1
2015-Jun-28 19:34N 37°13' E 003°47'2020.2
2015-Jun-28 18:33N 37°16' E 004°12'2019.9
2015-Jun-28 17:33N 37°20' E 004°37'2020.2
2015-Jun-28 16:33N 37°22' E 005°02'1919.5
2015-Jun-28 15:33N 37°25' E 005°26'2020.1
2015-Jun-28 14:33N 37°28' E 005°51'2120.2
2015-Jun-28 13:32N 37°32' E 006°17'10320.3
2015-Jun-28 08:27N 37°48' E 008°26'1820.2
2015-Jun-28 07:33N 37°51' E 008°49'2020.1
2015-Jun-28 06:33N 37°49' E 009°14'2120.6
2015-Jun-28 05:32N 37°43' E 009°39'2019.9
2015-Jun-28 04:32N 37°39' E 010°04'2319.4
2015-Jun-28 03:21N 37°35' E 010°33'1819.3
2015-Jun-28 02:24N 37°31' E 010°55'2219.6
2015-Jun-28 01:15N 37°24' E 011°22'1720.4
2015-Jun-28 00:25N 37°15' E 011°40'1820.7
2015-Jun-27 23:33N 37°07' E 012°00'2120.7
2015-Jun-27 22:33N 37°00' E 012°25'2120.6
2015-Jun-27 21:33N 36°55' E 012°50'2120.4
2015-Jun-27 20:33N 36°49' E 013°14'2020.3
2015-Jun-27 19:33N 36°44' E 013°38'2020.0
2015-Jun-27 18:33N 36°38' E 014°02'2020.1
2015-Jun-27 17:33N 36°32' E 014°26'2019.7
2015-Jun-27 16:33N 36°29' E 014°50'2020.2
2015-Jun-27 15:33N 36°28' E 015°16'44818.5
2015-Jun-26 15:17N 37°39' E 024°30'1620.4
2015-Jun-26 14:29N 37°55' E 024°35'  
Track history (hours):
 
Tides and Currents Weather Stations Pressure Air Temp Water Temp Dewpoint Dewpoint Depression Visibility Wind Speed Wind Dir Waves Ship Positions

Sct Santiago

Last reported at 2015-Jul-06 13:33 UTC. Time now 2015-Jul-06 13:37 UTC.
Position N 49°55' W 003°01'.

Length 294 m; draft 11.3 m.

Type: Cargo ship. MMSI: 538002953.

Date/timePositionNaut miles runAvg speedWind from/ knotsBaromVisibWave heightAir tempDewpointWater temp
2015-Jul-06 13:33N 49°55' W 003°01'2120.7
2015-Jul-06 12:33N 50°02' W 002°31'2019.2
2015-Jul-06 11:30N 50°07' W 001°60'5819.0
2015-Jul-06 08:26N 50°23' W 000°32'2620.2
2015-Jul-06 07:09N 50°30' E 000°07'1320.5
2015-Jul-06 06:32N 50°33' E 000°26'2020.5
2015-Jul-06 05:33N 50°43' E 000°54'2020.4
2015-Jul-06 04:33N 50°56' E 001°19'1918.7
2015-Jul-06 03:34N 51°09' E 001°39'1818.4
2015-Jul-06 02:34N 51°23' E 001°58'1817.5
2015-Jul-06 01:33N 51°22' E 002°26'1514.7
2015-Jul-06 00:34N 51°22' E 002°50'1717.4
2015-Jul-05 23:34N 51°25' E 003°17'1212.0
2015-Jul-05 22:33N 51°26' E 003°36'1212.3
2015-Jul-05 21:33N 51°22' E 003°55'10 9.7
2015-Jul-05 20:33N 51°24' E 004°10'5 5.1
2015-Jul-05 19:33N 51°21' E 004°17'2 1.6
2015-Jul-05 18:33N 51°19' E 004°19'1 0.7
2015-Jul-05 17:31N 51°20' E 004°20'0 0.0
2015-Jul-05 16:31N 51°20' E 004°20'0 0.0
2015-Jul-05 15:31N 51°20' E 004°20'0 0.0
2015-Jul-05 14:31N 51°20' E 004°20'0 0.0
2015-Jul-05 13:28N 51°20' E 004°20'0 0.0
2015-Jul-05 12:31N 51°20' E 004°20'0 0.0
2015-Jul-05 11:31N 51°20' E 004°20'0 0.0
2015-Jul-05 10:31N 51°20' E 004°20'0 0.0
2015-Jul-05 09:28N 51°20' E 004°20'0 0.0
2015-Jul-05 08:31N 51°20' E 004°20'0 0.0
2015-Jul-05 07:31N 51°20' E 004°20'0 0.0
2015-Jul-05 06:31N 51°20' E 004°20'0 0.0
2015-Jul-05 05:31N 51°20' E 004°20'0 0.0
2015-Jul-05 04:31N 51°20' E 004°20'0 0.0
2015-Jul-05 03:31N 51°20' E 004°20'0 0.0
2015-Jul-05 02:31N 51°20' E 004°20'0 0.0
2015-Jul-05 01:28N 51°20' E 004°20'0 0.0
2015-Jul-05 00:34N 51°20' E 004°20'0 0.0
2015-Jul-04 23:33N 51°20' E 004°20'0 0.0
2015-Jul-04 22:33N 51°20' E 004°20'0 0.0
2015-Jul-04 21:33N 51°20' E 004°20'0 0.0
2015-Jul-04 20:33N 51°20' E 004°20'0 0.0
2015-Jul-04 19:33N 51°20' E 004°20'0 0.0
2015-Jul-04 18:33N 51°20' E 004°20'0 0.0
2015-Jul-04 17:33N 51°20' E 004°20'0 0.0
2015-Jul-04 16:33N 51°20' E 004°20'0 0.0
2015-Jul-04 15:24N 51°20' E 004°20'0 0.0
2015-Jul-04 14:33N 51°20' E 004°20'0 0.0
2015-Jul-04 13:33N 51°20' E 004°20'2 2.1
2015-Jul-04 12:34N 51°21' E 004°17'0 0.0
2015-Jul-04 11:34N 51°21' E 004°17'1 1.2
2015-Jul-04 10:33N 51°21' E 004°15'4 4.0
2015-Jul-04 09:33N 51°23' E 004°10'8 7.9
2015-Jul-04 08:33N 51°24' E 003°58'9 9.5
2015-Jul-04 07:33N 51°24' E 003°42'8 8.5
2015-Jul-04 06:33N 51°25' E 003°29'1515.2
2015-Jul-04 05:33N 51°24' E 003°05'1414.0
2015-Jul-04 04:33N 51°22' E 002°43'10 9.9
2015-Jul-04 03:33N 51°22' E 002°27'1818.1
2015-Jul-04 02:34N 51°25' E 001°58'2019.9
2015-Jul-04 01:34N 51°43' E 001°45'1313.0
2015-Jul-04 00:34N 51°54' E 001°34'1010.1
2015-Jul-03 23:33N 51°57' E 001°18'0 0.4
2015-Jul-03 22:31N 51°58' E 001°18'0 0.0
2015-Jul-03 21:31N 51°58' E 001°18'0 0.0
2015-Jul-03 20:31N 51°58' E 001°18'0 0.0
2015-Jul-03 19:31N 51°58' E 001°18'0 0.0
2015-Jul-03 18:31N 51°58' E 001°18'0 0.0
2015-Jul-03 17:31N 51°58' E 001°18'0 0.0
2015-Jul-03 16:31N 51°58' E 001°18'0 0.0
2015-Jul-03 15:31N 51°58' E 001°18'0 0.0
2015-Jul-03 14:31N 51°58' E 001°18'0 0.0
2015-Jul-03 13:31N 51°58' E 001°18'0 0.0
2015-Jul-03 12:31N 51°58' E 001°18'0 0.0
2015-Jul-03 11:34N 51°58' E 001°18'0 0.0
2015-Jul-03 10:33N 51°58' E 001°18'0 0.0
2015-Jul-03 09:33N 51°58' E 001°18'0 0.0
2015-Jul-03 08:33N 51°58' E 001°18'0 0.0
2015-Jul-03 07:33N 51°58' E 001°18'0 0.0
2015-Jul-03 06:33N 51°58' E 001°18'0 0.0
2015-Jul-03 05:33N 51°58' E 001°18'0 0.0
2015-Jul-03 04:33N 51°58' E 001°18'0 0.0
2015-Jul-03 03:33N 51°58' E 001°18'0 0.0
2015-Jul-03 02:33N 51°58' E 001°18'0 0.0
2015-Jul-03 01:33N 51°58' E 001°18'0 0.0
2015-Jul-03 00:33N 51°58' E 001°18'0 0.0
2015-Jul-02 23:33N 51°58' E 001°18'0 0.0
2015-Jul-02 22:33N 51°58' E 001°18'0 0.0
2015-Jul-02 21:33N 51°58' E 001°18'0 0.0
2015-Jul-02 20:33N 51°58' E 001°18'0 0.0
2015-Jul-02 19:33N 51°58' E 001°18'0 0.0
2015-Jul-02 18:33N 51°58' E 001°18'0 0.0
2015-Jul-02 17:33N 51°58' E 001°18'0 0.0
2015-Jul-02 16:33N 51°58' E 001°18'0 0.3
2015-Jul-02 15:33N 51°57' E 001°18'5 5.4
2015-Jul-02 14:33N 51°56' E 001°26'10 9.9
2015-Jul-02 13:33N 51°52' E 001°41'5 5.4
2015-Jul-02 12:33N 51°50' E 001°49'1717.4
2015-Jul-02 11:33N 51°32' E 001°52'1817.6
2015-Jul-02 10:33N 51°15' E 001°53'2221.7
2015-Jul-02 09:33N 50°59' E 001°30'2020.3
2015-Jul-02 08:33N 50°40' E 001°17'2120.7
2015-Jul-02 07:32N 50°28' E 000°50'4321.6
2015-Jul-02 05:33N 50°14' W 000°14'2121.1
2015-Jul-02 04:33N 50°09' W 000°46'2019.9
2015-Jul-02 03:33N 50°04' W 001°15'1918.4
2015-Jul-02 02:33N 49°60' W 001°44'1817.6
2015-Jul-02 01:32N 49°55' W 002°10'66318.7
2015-Jun-30 14:09N 40°16' W 009°49'1420.5
2015-Jun-30 13:29N 40°02' W 009°49'1920.3
2015-Jun-30 12:33N 39°44' W 009°50'2020.3
2015-Jun-30 11:33N 39°23' W 009°52'2020.2
2015-Jun-30 10:33N 39°03' W 009°52'2020.1
2015-Jun-30 09:33N 38°43' W 009°52'2020.1
2015-Jun-30 08:33N 38°24' W 009°46'2020.3
2015-Jun-30 07:33N 38°04' W 009°40'2020.2
2015-Jun-30 06:33N 37°44' W 009°34'2020.0
2015-Jun-30 05:33N 37°24' W 009°28'2020.2
2015-Jun-30 04:33N 37°05' W 009°23'2019.8
2015-Jun-30 03:33N 36°47' W 009°12'2020.1
2015-Jun-30 02:33N 36°40' W 008°49'2020.0
2015-Jun-30 01:33N 36°33' W 008°25'2020.0
2015-Jun-30 00:33N 36°27' W 008°02'2020.0
2015-Jun-29 23:33N 36°21' W 007°38'2020.6
2015-Jun-29 22:33N 36°14' W 007°14'2120.3
2015-Jun-29 21:33N 36°08' W 006°50'7619.1
2015-Jun-29 17:33N 36°03' W 005°16'16019.8
2015-Jun-29 09:31N 36°27' W 002°01'2020.3
2015-Jun-29 08:33N 36°31' W 001°36'2020.3
2015-Jun-29 07:33N 36°34' W 001°12'2020.2
2015-Jun-29 06:33N 36°37' W 000°47'2020.0
2015-Jun-29 05:34N 36°41' W 000°22'2020.2
2015-Jun-29 04:33N 36°44' E 000°03'2020.2
2015-Jun-29 03:34N 36°47' E 000°27'2019.8
2015-Jun-29 02:34N 36°51' E 000°52'2020.1
2015-Jun-29 01:33N 36°53' E 001°17'2020.4
2015-Jun-29 00:34N 36°57' E 001°42'2020.3
2015-Jun-28 23:33N 36°60' E 002°07'2020.3
2015-Jun-28 22:34N 37°03' E 002°32'2020.4
2015-Jun-28 21:34N 37°07' E 002°57'2120.3
2015-Jun-28 20:32N 37°10' E 003°23'1920.1
2015-Jun-28 19:34N 37°13' E 003°47'2020.2
2015-Jun-28 18:33N 37°16' E 004°12'2019.9
2015-Jun-28 17:33N 37°20' E 004°37'2020.2
2015-Jun-28 16:33N 37°22' E 005°02'1919.5
2015-Jun-28 15:33N 37°25' E 005°26'2020.1
2015-Jun-28 14:33N 37°28' E 005°51'2120.2
2015-Jun-28 13:32N 37°32' E 006°17'10320.3
2015-Jun-28 08:27N 37°48' E 008°26'1820.2
2015-Jun-28 07:33N 37°51' E 008°49'2020.1
2015-Jun-28 06:33N 37°49' E 009°14'2120.6
2015-Jun-28 05:32N 37°43' E 009°39'2019.9
2015-Jun-28 04:32N 37°39' E 010°04'2319.4
2015-Jun-28 03:21N 37°35' E 010°33'1819.3
2015-Jun-28 02:24N 37°31' E 010°55'2219.6
2015-Jun-28 01:15N 37°24' E 011°22'1720.4
2015-Jun-28 00:25N 37°15' E 011°40'1820.7
2015-Jun-27 23:33N 37°07' E 012°00'2120.7
2015-Jun-27 22:33N 37°00' E 012°25'2120.6
2015-Jun-27 21:33N 36°55' E 012°50'2120.4
2015-Jun-27 20:33N 36°49' E 013°14'2020.3
2015-Jun-27 19:33N 36°44' E 013°38'2020.0
2015-Jun-27 18:33N 36°38' E 014°02'2020.1
2015-Jun-27 17:33N 36°32' E 014°26'2019.7
2015-Jun-27 16:33N 36°29' E 014°50'2020.2
2015-Jun-27 15:33N 36°28' E 015°16'44818.5
2015-Jun-26 15:17N 37°39' E 024°30'1620.4
2015-Jun-26 14:29N 37°55' E 024°35'  

Dump ship's entire track history